Time;durP1;ratioP1;P1;durP2;ratioP2;P2;SDS_P1;SDS_P2;PMS_P1;PMS_P2;Temp;Humidity;BMP_temperature;BMP_pressure;BME280_temperature;BME280_humidity;BME280_pressure;Samples;Min_cycle;Max_cycle;Signal;HPM_P1;HPM_P2
2024/03/29 00:00:22;;;;;;;3.53;0.98;;;;;;;5.75;54.64;98034.34;10432982;28;20527;-60
2024/03/29 00:05:23;;;;;;;2.20;1.38;;;;;;;5.50;55.48;98027.44;10449836;28;20223;-59
2024/03/29 00:10:24;;;;;;;2.08;1.20;;;;;;;5.26;55.95;98007.56;10416439;28;20094;-59
2024/03/29 00:15:25;;;;;;;1.75;1.20;;;;;;;5.23;56.18;97989.63;10431331;28;20126;-59
2024/03/29 00:20:26;;;;;;;1.50;1.05;;;;;;;5.46;55.80;97994.06;10432305;28;20084;-59
2024/03/29 00:25:27;;;;;;;1.40;1.05;;;;;;;5.59;55.86;97984.50;10431167;28;20045;-60
2024/03/29 00:30:28;;;;;;;1.05;0.80;;;;;;;5.79;55.38;97973.53;10415125;28;20446;-59
2024/03/29 00:35:29;;;;;;;1.23;0.70;;;;;;;6.10;54.96;97966.97;10432265;28;20052;-60
2024/03/29 00:40:30;;;;;;;1.52;0.90;;;;;;;6.29;54.56;97959.50;10432013;28;20032;-59
2024/03/29 00:45:31;;;;;;;2.10;0.93;;;;;;;6.44;54.34;97967.94;10431042;28;20041;-59
2024/03/29 00:50:32;;;;;;;2.38;1.52;;;;;;;6.56;54.50;97980.00;10431858;28;20562;-59
2024/03/29 00:55:33;;;;;;;1.55;0.55;;;;;;;6.52;54.42;97981.19;10431059;28;20075;-59
2024/03/29 01:00:34;;;;;;;1.13;0.85;;;;;;;6.39;54.61;97983.06;10431702;28;20919;-59
2024/03/29 01:05:34;;;;;;;0.95;0.73;;;;;;;6.39;54.83;97949.28;10431031;28;20040;-60
2024/03/29 01:10:35;;;;;;;1.52;0.98;;;;;;;6.17;54.90;97956.03;10397668;28;20417;-59
2024/03/29 01:15:36;;;;;;;0.85;0.85;;;;;;;6.15;55.06;97965.69;10430395;28;20056;-59
2024/03/29 01:20:38;;;;;;;2.85;1.70;;;;;;;6.12;55.44;97959.91;10430817;28;20033;-59
2024/03/29 01:25:39;;;;;;;1.55;1.10;;;;;;;6.13;55.46;97933.00;10429824;28;20047;-60
2024/03/29 01:30:40;;;;;;;2.90;0.80;;;;;;;6.18;55.22;97931.75;10430729;28;20075;-59
2024/03/29 01:35:41;;;;;;;1.88;0.88;;;;;;;6.30;54.93;97943.00;10414036;28;20048;-59
2024/03/29 01:40:42;;;;;;;0.85;0.80;;;;;;;6.33;54.97;97946.19;10414080;28;20087;-59
2024/03/29 01:45:48;;;;;;;4.75;1.10;;;;;;;6.43;55.29;97929.94;10413531;28;20534;-59
2024/03/29 01:50:51;;;;;;;0.57;0.57;;;;;;;6.47;55.08;97915.78;10430523;28;20512;-59
2024/03/29 01:55:52;;;;;;;1.90;0.65;;;;;;;6.48;55.15;97904.44;10430935;28;20118;-60
2024/03/29 02:00:56;;;;;;;1.52;0.75;;;;;;;6.58;55.24;97887.22;10437070;28;20047;-60
2024/03/29 02:05:59;;;;;;;0.70;0.70;;;;;;;6.51;54.99;97891.25;10421669;28;20037;-59
2024/03/29 02:11:00;;;;;;;3.17;1.40;;;;;;;6.52;55.32;97879.91;10437386;28;20397;-59
2024/03/29 02:16:01;;;;;;;1.83;0.93;;;;;;;6.49;55.55;97872.38;10420490;28;20131;-59
2024/03/29 02:21:02;;;;;;;3.50;1.52;;;;;;;6.51;55.53;97896.44;10421244;28;20404;-59
2024/03/29 02:26:04;;;;;;;4.03;1.08;;;;;;;6.48;55.43;97878.50;10436471;28;20472;-60
2024/03/29 02:31:05;;;;;;;1.48;0.88;;;;;;;6.58;55.62;97877.69;10436636;28;20045;-59
2024/03/29 02:36:06;;;;;;;2.33;1.33;;;;;;;6.70;55.45;97881.09;10436667;28;20037;-59
2024/03/29 02:41:07;;;;;;;3.53;1.45;;;;;;;6.76;55.26;97901.41;10436805;28;20492;-59
2024/03/29 02:46:08;;;;;;;3.72;1.55;;;;;;;6.77;55.29;97905.69;10435876;28;20037;-59
2024/03/29 02:51:09;;;;;;;2.00;0.98;;;;;;;6.67;55.26;97889.16;10435726;28;20056;-60
2024/03/29 02:56:10;;;;;;;2.70;0.93;;;;;;;6.56;55.59;97900.34;10468835;28;20059;-59
2024/03/29 03:01:11;;;;;;;1.95;1.17;;;;;;;6.73;55.59;97888.69;10434982;28;20053;-60
2024/03/29 03:06:12;;;;;;;2.22;0.95;;;;;;;6.77;55.42;97882.31;10434957;28;20045;-59
2024/03/29 03:11:13;;;;;;;4.72;1.17;;;;;;;6.77;55.61;97846.78;10417630;28;20556;-60
2024/03/29 03:16:13;;;;;;;3.05;1.30;;;;;;;6.57;55.90;97844.84;10433839;28;20341;-60
2024/03/29 03:21:14;;;;;;;1.40;0.77;;;;;;;6.63;56.38;97853.97;10434476;28;20092;-60
2024/03/29 03:26:15;;;;;;;1.52;0.90;;;;;;;6.77;56.03;97864.13;10450098;28;20048;-59
2024/03/29 03:31:16;;;;;;;1.50;1.15;;;;;;;6.92;55.53;97860.31;10434154;28;20056;-59
2024/03/29 03:36:17;;;;;;;5.10;1.50;;;;;;;7.16;54.95;97850.63;10434448;28;20397;-60
2024/03/29 03:41:18;;;;;;;1.58;0.75;;;;;;;7.37;54.44;97861.09;10433828;28;20524;-60
2024/03/29 03:46:19;;;;;;;2.53;1.33;;;;;;;7.55;54.42;97850.03;10433144;28;20056;-60
2024/03/29 03:51:20;;;;;;;6.03;1.23;;;;;;;7.57;54.59;97852.53;10400657;28;20071;-59
2024/03/29 03:56:21;;;;;;;1.77;1.05;;;;;;;7.59;54.96;97856.66;10433578;28;20045;-60
2024/03/29 04:01:22;;;;;;;2.67;1.17;;;;;;;7.54;54.86;97868.38;10432891;28;20052;-59
2024/03/29 04:06:23;;;;;;;2.55;1.20;;;;;;;7.53;55.31;97861.53;10433312;28;20037;-59
2024/03/29 04:11:24;;;;;;;3.83;1.40;;;;;;;7.52;54.89;97857.28;10432582;28;20045;-59
2024/03/29 04:16:25;;;;;;;2.55;1.40;;;;;;;7.58;54.45;97864.59;10432274;28;20093;-59
2024/03/29 04:21:26;;;;;;;1.08;0.82;;;;;;;7.73;54.14;97864.16;10431661;28;20037;-60
2024/03/29 04:26:27;;;;;;;4.60;1.08;;;;;;;7.87;53.74;97852.66;10432088;28;20052;-60
2024/03/29 04:31:28;;;;;;;2.80;1.13;;;;;;;8.00;53.58;97841.09;10415722;28;20052;-60
2024/03/29 04:36:29;;;;;;;2.50;0.82;;;;;;;8.17;53.51;97844.13;10415667;28;20041;-59
2024/03/29 04:41:34;;;;;;;2.47;1.33;;;;;;;8.20;53.25;97820.44;10431915;28;20405;-60
2024/03/29 04:46:35;;;;;;;1.70;0.98;;;;;;;8.18;53.29;97811.94;10413865;28;20420;-60
2024/03/29 04:51:35;;;;;;;2.20;1.00;;;;;;;8.12;53.25;97818.47;10431127;28;20054;-59
2024/03/29 04:56:36;;;;;;;0.90;0.65;;;;;;;8.25;52.98;97823.47;10415329;28;20044;-60
2024/03/29 05:01:38;;;;;;;1.73;1.08;;;;;;;8.24;52.97;97821.84;10415516;28;20513;-59
2024/03/29 05:06:39;;;;;;;2.58;0.98;;;;;;;8.31;53.25;97833.38;10431342;28;20562;-60
2024/03/29 05:11:40;;;;;;;1.25;1.05;;;;;;;8.41;53.29;97837.69;10414663;28;20053;-59
2024/03/29 05:16:41;;;;;;;1.52;1.10;;;;;;;8.31;53.78;97855.06;10431559;28;20378;-60
2024/03/29 05:21:42;;;;;;;3.42;0.65;;;;;;;8.29;53.83;97850.91;10430659;28;20045;-59
2024/03/29 05:26:43;;;;;;;3.10;0.60;;;;;;;8.50;54.21;97863.00;10430857;28;20128;-60
2024/03/29 05:31:44;;;;;;;1.52;0.93;;;;;;;8.69;54.23;97876.09;10430981;28;20041;-60
2024/03/29 05:36:45;;;;;;;1.33;0.75;;;;;;;8.79;53.87;97876.16;10438640;28;20099;-59
2024/03/29 05:41:46;;;;;;;1.33;0.80;;;;;;;8.79;54.35;97886.59;10422491;28;20075;-60
2024/03/29 05:46:49;;;;;;;1.38;0.80;;;;;;;8.76;55.17;97877.25;10438179;28;20539;-60
2024/03/29 05:51:51;;;;;;;1.73;0.85;;;;;;;8.78;55.47;97864.91;10421999;28;20117;-60
2024/03/29 05:56:52;;;;;;;1.23;0.63;;;;;;;8.68;55.65;97871.03;10437652;28;20102;-61
2024/03/29 06:01:53;;;;;;;2.17;0.93;;;;;;;8.66;55.92;97873.78;10435947;28;20097;-60
2024/03/29 06:06:54;;;;;;;0.75;0.75;;;;;;;8.58;56.09;97877.97;10421477;28;20037;-60
2024/03/29 06:11:56;;;;;;;0.90;0.73;;;;;;;8.58;56.12;97888.38;10418570;28;20090;-60
2024/03/29 06:22:18;;;;;;;2.35;1.00;;;;;;;8.63;56.10;97904.44;10436743;28;20064;-59
2024/03/29 06:27:20;;;;;;;1.48;0.85;;;;;;;8.58;56.16;97884.00;10436948;28;20140;-60
2024/03/29 06:32:21;;;;;;;1.35;0.93;;;;;;;8.61;56.25;97896.75;10437193;28;20425;-59
2024/03/29 06:37:25;;;;;;;0.82;0.80;;;;;;;8.63;56.21;97905.28;10436261;28;20147;-59
2024/03/29 06:42:26;;;;;;;0.93;0.88;;;;;;;8.67;56.33;97908.44;10436227;28;20048;-59
2024/03/29 06:47:28;;;;;;;1.75;0.80;;;;;;;8.61;56.61;97895.94;10435128;28;20489;-60
2024/03/29 06:52:29;;;;;;;1.90;0.93;;;;;;;8.60;56.60;97908.16;10419557;28;20037;-60
2024/03/29 06:57:31;;;;;;;1.38;0.90;;;;;;;8.60;56.99;97908.16;10428409;28;20049;-60
2024/03/29 07:02:32;;;;;;;1.92;0.85;;;;;;;8.70;57.05;97916.03;10425434;28;20045;-60
2024/03/29 07:07:34;;;;;;;2.58;1.20;;;;;;;8.89;56.86;97918.75;10421936;28;20049;-60
2024/03/29 07:12:35;;;;;;;1.55;1.00;;;;;;;9.08;56.76;97942.28;10421078;28;20584;-60
2024/03/29 07:17:35;;;;;;;2.05;0.90;;;;;;;9.35;56.53;97952.97;10411801;28;20051;-60
2024/03/29 07:22:36;;;;;;;1.20;0.80;;;;;;;9.39;56.60;97958.75;10426108;28;20098;-60
2024/03/29 07:27:37;;;;;;;1.80;0.82;;;;;;;9.36;56.99;97964.25;10410628;28;20041;-60
2024/03/29 07:32:39;;;;;;;3.80;0.95;;;;;;;9.24;57.36;97955.66;10424565;28;20546;-60
2024/03/29 07:37:40;;;;;;;0.85;0.60;;;;;;;9.25;57.61;97962.53;10420940;28;20037;-60
2024/03/29 07:42:41;;;;;;;0.70;0.70;;;;;;;9.26;58.37;97956.34;10427070;28;20033;-60
2024/03/29 07:47:42;;;;;;;0.80;0.80;;;;;;;9.41;58.41;97957.66;10418983;28;20420;-60
2024/03/29 07:52:47;;;;;;;1.42;0.70;;;;;;;9.61;58.38;97954.16;10426827;28;20040;-60
2024/03/29 07:57:48;;;;;;;0.68;0.55;;;;;;;9.80;57.97;97953.41;10408444;28;20424;-58
2024/03/29 08:02:51;;;;;;;1.42;0.98;;;;;;;9.89;58.19;97946.56;10426995;28;20064;-59
2024/03/29 08:07:52;;;;;;;1.55;0.80;;;;;;;9.96;58.12;97942.41;10424429;28;20049;-59
2024/03/29 08:12:53;;;;;;;1.40;0.73;;;;;;;10.05;58.24;97942.47;10432526;28;20508;-60
2024/03/29 08:17:54;;;;;;;0.73;0.73;;;;;;;10.00;58.08;97944.63;10432709;28;20049;-59
2024/03/29 08:22:58;;;;;;;2.45;1.38;;;;;;;10.03;58.09;97940.94;10432681;28;20347;-59
2024/03/29 08:27:59;;;;;;;1.42;1.00;;;;;;;10.07;58.26;97940.53;10415900;28;20556;-59
2024/03/29 08:33:03;;;;;;;2.15;0.85;;;;;;;10.08;58.88;97951.78;10432041;28;20049;-59
2024/03/29 08:38:05;;;;;;;4.70;1.58;;;;;;;10.32;58.06;97960.03;10432292;28;20552;-59
2024/03/29 08:43:06;;;;;;;1.17;0.80;;;;;;;10.55;58.10;97957.97;10432155;28;20037;-59
2024/03/29 08:48:08;;;;;;;2.15;1.13;;;;;;;10.72;58.27;97962.50;10431331;28;20045;-59
2024/03/29 08:53:09;;;;;;;0.93;0.85;;;;;;;10.90;57.89;97972.09;10432005;28;20037;-58
2024/03/29 08:58:10;;;;;;;2.08;0.70;;;;;;;11.00;57.60;97978.13;10431187;28;20087;-58
2024/03/29 09:03:11;;;;;;;2.88;0.90;;;;;;;11.26;57.52;97975.72;10431728;28;20111;-58
2024/03/29 09:08:12;;;;;;;1.63;0.98;;;;;;;11.33;57.37;97989.91;10433687;28;20061;-59
2024/03/29 09:13:13;;;;;;;1.58;1.00;;;;;;;11.49;57.42;97999.75;10440101;28;20057;-59
2024/03/29 09:18:23;;;;;;;2.05;0.82;;;;;;;11.60;57.20;97987.28;10390553;28;20052;-59
2024/03/29 09:23:25;;;;;;;0.90;0.83;;;;;;;11.87;57.08;97989.91;10439661;28;20041;-59
2024/03/29 09:28:26;;;;;;;1.83;1.00;;;;;;;11.98;57.20;97987.13;10439336;28;20057;-59
2024/03/29 09:33:27;;;;;;;0.63;0.60;;;;;;;12.09;57.03;97978.19;10439489;28;20053;-59
2024/03/29 09:38:28;;;;;;;1.15;1.05;;;;;;;12.20;56.76;97992.88;10422393;28;20052;-59
2024/03/29 09:43:30;;;;;;;1.98;1.00;;;;;;;12.17;56.91;97998.44;10439191;28;20059;-59
2024/03/29 09:48:36;;;;;;;1.88;0.88;;;;;;;12.30;56.99;98006.78;10438622;28;20578;-59
2024/03/29 09:53:37;;;;;;;1.67;0.70;;;;;;;12.32;56.67;97989.09;10421557;28;20489;-59
2024/03/29 09:58:38;;;;;;;1.45;0.80;;;;;;;12.41;55.98;97977.72;10430975;28;20044;-59
2024/03/29 10:03:41;;;;;;;1.83;1.00;;;;;;;12.49;56.61;97990.91;10398632;28;20135;-59
2024/03/29 10:08:42;;;;;;;3.05;1.17;;;;;;;12.45;56.55;97990.41;10411363;28;20051;-59
2024/03/29 10:13:44;;;;;;;1.42;0.93;;;;;;;12.39;56.45;97985.75;10411284;28;20136;-59
2024/03/29 10:18:47;;;;;;;1.23;0.80;;;;;;;12.47;55.89;97971.88;10423514;28;20473;-60
2024/03/29 10:23:48;;;;;;;1.83;0.80;;;;;;;12.76;55.64;97989.00;10426712;28;20052;-59
2024/03/29 10:28:51;;;;;;;1.65;0.93;;;;;;;12.84;55.45;97985.63;10428933;28;20072;-60
2024/03/29 10:33:54;;;;;;;0.93;0.50;;;;;;;13.06;55.04;97973.81;10423742;28;20083;-59
2024/03/29 10:38:56;;;;;;;1.95;1.00;;;;;;;13.52;54.35;97981.31;10431281;28;20079;-59
2024/03/29 10:43:59;;;;;;;1.33;0.80;;;;;;;13.86;54.03;97973.41;10430144;28;20045;-59
2024/03/29 10:49:01;;;;;;;1.20;0.90;;;;;;;14.04;53.54;97977.59;10431500;28;20135;-59
2024/03/29 10:54:04;;;;;;;0.95;0.50;;;;;;;14.46;53.05;97952.00;10431361;28;20385;-59
2024/03/29 10:59:32;;;;;;;1.02;0.70;;;;;;;14.71;51.59;97954.66;10436022;28;20120;-59
2024/03/29 11:04:37;;;;;;;0.55;0.55;;;;;;;14.82;51.53;97952.50;10435174;28;20066;-59
2024/03/29 11:09:40;;;;;;;0.95;0.63;;;;;;;14.54;52.36;97972.25;10433672;28;20053;-60
2024/03/29 11:14:48;;;;;;;0.60;0.40;;;;;;;14.15;52.58;97997.47;10434698;28;20053;-59
2024/03/29 11:19:49;;;;;;;0.47;0.47;;;;;;;13.91;52.86;97997.41;10424838;28;20049;-59
2024/03/29 11:24:51;;;;;;;1.10;0.60;;;;;;;13.83;52.97;98040.25;10423112;28;20110;-59
2024/03/29 11:29:52;;;;;;;0.55;0.52;;;;;;;13.67;53.46;98058.56;10410323;28;20428;-61
2024/03/29 11:34:55;;;;;;;1.52;0.70;;;;;;;13.26;54.38;98075.00;10416662;28;20394;-61
2024/03/29 11:39:58;;;;;;;1.30;0.75;;;;;;;12.90;55.63;98056.66;10400751;28;20303;-59
2024/03/29 11:44:59;;;;;;;0.55;0.47;;;;;;;12.72;56.32;98042.75;10416383;28;20543;-59
2024/03/29 11:50:00;;;;;;;1.60;0.80;;;;;;;12.33;57.23;98012.56;10422511;28;20106;-59
2024/03/29 11:55:02;;;;;;;0.80;0.80;;;;;;;12.12;57.89;98030.31;10427753;28;20041;-60
2024/03/29 12:00:04;;;;;;;2.72;1.20;;;;;;;11.90;58.79;98017.63;10416213;28;20068;-59
2024/03/29 12:05:10;;;;;;;1.00;0.90;;;;;;;11.59;60.42;97993.53;10425775;28;20041;-59
2024/03/29 12:10:12;;;;;;;1.20;0.90;;;;;;;11.48;59.76;98019.88;10412179;28;20497;-60
2024/03/29 12:15:14;;;;;;;3.40;1.10;;;;;;;11.44;59.72;98059.59;10427424;28;20057;-59
2024/03/29 12:20:17;;;;;;;1.67;1.08;;;;;;;11.60;59.92;98059.81;10423285;28;20397;-60
2024/03/29 12:25:20;;;;;;;2.33;1.15;;;;;;;11.75;60.32;98063.59;10408218;28;20374;-59
2024/03/29 12:30:22;;;;;;;1.58;1.13;;;;;;;11.97;59.88;98058.81;10426701;28;20033;-59
2024/03/29 12:35:27;;;;;;;2.00;1.02;;;;;;;12.21;60.31;98084.47;10425135;28;20140;-60
2024/03/29 12:40:35;;;;;;;3.30;1.40;;;;;;;12.21;59.75;98081.03;10410728;28;20049;-59
2024/03/29 12:45:39;;;;;;;1.55;1.00;;;;;;;12.44;60.03;98072.63;10430016;28;20047;-60
2024/03/29 12:50:41;;;;;;;2.97;1.33;;;;;;;12.67;59.71;98081.72;10430126;28;20141;-60
2024/03/29 12:55:47;;;;;;;1.98;1.23;;;;;;;12.53;60.33;98092.72;10430944;28;20045;-60
2024/03/29 13:00:48;;;;;;;2.00;1.52;;;;;;;12.29;60.44;98110.81;10431052;28;20049;-60
2024/03/29 13:05:49;;;;;;;2.25;1.52;;;;;;;12.42;60.78;98123.56;10426002;28;20053;-60
2024/03/29 13:10:51;;;;;;;2.33;1.30;;;;;;;12.44;60.59;98121.59;10425818;28;20056;-60
2024/03/29 13:15:52;;;;;;;1.83;1.10;;;;;;;12.41;60.61;98114.06;10410809;28;20041;-60
2024/03/29 13:20:56;;;;;;;1.42;1.00;;;;;;;12.09;61.32;98111.81;10426433;28;20048;-60
2024/03/29 13:25:57;;;;;;;1.17;1.05;;;;;;;12.22;61.39;98129.84;10426963;28;20049;-60
2024/03/29 13:30:58;;;;;;;1.70;1.20;;;;;;;12.66;61.02;98122.03;10426635;28;20045;-60
2024/03/29 13:35:59;;;;;;;1.75;1.10;;;;;;;12.75;60.80;98088.84;10409205;28;20447;-60
2024/03/29 13:41:00;;;;;;;2.92;1.38;;;;;;;13.17;60.70;98113.47;10410448;28;20102;-60
2024/03/29 13:46:02;;;;;;;1.48;1.00;;;;;;;13.54;60.06;98118.53;10408313;28;20123;-60
2024/03/29 13:51:06;;;;;;;3.78;1.15;;;;;;;13.57;60.31;98107.75;10406999;28;20045;-60
2024/03/29 13:56:08;;;;;;;2.42;1.27;;;;;;;13.52;60.02;98092.44;10428544;28;20044;-60
2024/03/29 14:01:10;;;;;;;1.70;1.05;;;;;;;13.59;60.24;98101.38;10433529;28;20091;-60
2024/03/29 14:06:11;;;;;;;0.75;0.70;;;;;;;13.39;60.60;98091.97;10437252;28;20055;-61
2024/03/29 14:11:14;;;;;;;1.77;1.02;;;;;;;13.66;60.22;98104.16;10437245;28;20071;-60
2024/03/29 14:16:14;;;;;;;1.05;0.80;;;;;;;13.85;60.29;98098.72;10419889;28;20060;-60
2024/03/29 14:21:15;;;;;;;1.25;0.93;;;;;;;13.71;59.75;98112.44;10437152;28;20052;-61
2024/03/29 14:26:16;;;;;;;1.83;0.80;;;;;;;13.52;60.44;98102.94;10436121;28;20524;-60
2024/03/29 14:31:17;;;;;;;1.75;0.77;;;;;;;13.43;60.25;98113.56;10435244;28;20056;-60
2024/03/29 14:36:18;;;;;;;0.70;0.70;;;;;;;13.50;60.48;98109.31;10436606;28;20186;-61
2024/03/29 14:41:21;;;;;;;1.67;0.80;;;;;;;13.67;60.32;98100.59;10436264;28;20106;-61
2024/03/29 14:46:23;;;;;;;1.40;1.02;;;;;;;13.65;60.50;98106.00;10435161;28;20089;-61
2024/03/29 14:51:24;;;;;;;0.98;0.73;;;;;;;13.45;60.27;98095.84;10434057;28;20139;-61
2024/03/29 14:56:30;;;;;;;2.45;0.77;;;;;;;13.34;59.63;98117.06;10433411;28;20130;-60
2024/03/29 15:01:32;;;;;;;0.90;0.43;;;;;;;13.16;59.64;98098.72;10432351;28;20409;-60
2024/03/29 15:06:33;;;;;;;2.55;1.30;;;;;;;13.35;58.91;98090.63;10400918;28;20061;-61
2024/03/29 15:11:35;;;;;;;0.65;0.60;;;;;;;13.49;58.60;98092.75;10417453;28;20048;-61
2024/03/29 15:16:36;;;;;;;0.45;0.45;;;;;;;13.52;58.85;98087.19;10433875;28;20439;-60
2024/03/29 15:21:39;;;;;;;1.00;0.70;;;;;;;13.46;59.17;98093.06;10434634;28;20045;-60
2024/03/29 15:26:40;;;;;;;0.68;0.65;;;;;;;13.41;59.96;98094.47;10418351;28;20766;-60
2024/03/29 15:31:42;;;;;;;1.08;0.85;;;;;;;13.27;60.51;98090.59;10433465;28;20057;-61
2024/03/29 15:36:43;;;;;;;1.08;0.77;;;;;;;13.30;60.20;98076.34;10417461;28;20124;-60
2024/03/29 15:41:45;;;;;;;1.88;0.90;;;;;;;13.06;60.81;98089.28;10433465;28;20072;-61
2024/03/29 15:46:47;;;;;;;0.95;0.80;;;;;;;13.02;61.19;98090.56;10433000;28;20056;-61
2024/03/29 15:51:48;;;;;;;0.98;0.80;;;;;;;13.11;61.12;98079.97;10416469;28;20083;-60
2024/03/29 15:56:49;;;;;;;1.13;0.70;;;;;;;12.96;61.29;98078.88;10414768;28;20705;-61
2024/03/29 16:01:50;;;;;;;1.73;0.90;;;;;;;12.99;61.62;98091.66;10432076;28;20048;-61
2024/03/29 16:06:51;;;;;;;4.22;1.25;;;;;;;12.93;61.49;98095.72;10432271;28;20048;-61
2024/03/29 16:11:52;;;;;;;1.17;0.80;;;;;;;12.65;62.19;98073.19;10413376;28;20057;-60
2024/03/29 16:16:53;;;;;;;1.48;0.80;;;;;;;12.55;62.33;98093.41;10415273;28;20049;-61
2024/03/29 16:21:54;;;;;;;1.38;0.75;;;;;;;12.49;62.49;98128.09;10431807;28;20048;-60
2024/03/29 16:26:55;;;;;;;2.90;1.10;;;;;;;12.48;62.76;98147.41;10430977;28;20072;-60
2024/03/29 16:31:56;;;;;;;2.15;1.30;;;;;;;12.49;63.22;98153.47;10427655;28;20060;-61
2024/03/29 16:36:57;;;;;;;2.40;1.55;;;;;;;12.41;63.36;98166.50;10428994;28;20086;-60
2024/03/29 16:41:58;;;;;;;1.80;1.23;;;;;;;12.48;63.46;98183.28;10412185;28;20037;-60
2024/03/29 16:47:00;;;;;;;1.40;0.95;;;;;;;12.56;63.65;98180.75;10425777;28;20069;-59
2024/03/29 16:52:01;;;;;;;2.03;1.23;;;;;;;12.60;63.53;98184.75;10410171;28;20045;-59
2024/03/29 16:57:02;;;;;;;1.10;1.00;;;;;;;12.63;63.57;98195.78;10427968;28;20048;-59
2024/03/29 17:02:04;;;;;;;3.95;1.70;;;;;;;12.61;63.83;98179.34;10426411;28;20048;-59
2024/03/29 17:07:05;;;;;;;7.25;2.42;;;;;;;12.60;64.09;98172.44;10393529;28;20045;-59
2024/03/29 17:12:07;;;;;;;1.30;1.10;;;;;;;12.50;63.95;98160.34;10425348;28;20491;-59
2024/03/29 17:17:08;;;;;;;3.35;1.25;;;;;;;12.35;64.32;98173.16;10424517;28;20039;-60
2024/03/29 17:22:09;;;;;;;1.20;0.93;;;;;;;12.29;64.17;98167.66;10425016;28;20386;-60
2024/03/29 17:27:10;;;;;;;1.65;1.10;;;;;;;12.29;64.29;98193.88;10426263;28;20508;-60
2024/03/29 17:32:11;;;;;;;3.03;1.65;;;;;;;12.21;64.82;98184.06;10433761;28;20893;-59
2024/03/29 17:37:12;;;;;;;2.45;1.42;;;;;;;11.88;65.37;98177.56;10432381;28;20677;-60
2024/03/29 17:42:13;;;;;;;5.00;1.60;;;;;;;11.95;65.45;98196.13;10397154;28;20864;-59
2024/03/29 17:47:14;;;;;;;4.18;1.88;;;;;;;11.99;65.47;98197.50;10449388;28;20068;-60
2024/03/29 17:52:15;;;;;;;2.72;1.77;;;;;;;12.03;65.69;98210.19;10434603;28;20076;-60
2024/03/29 17:57:16;;;;;;;3.47;1.65;;;;;;;11.88;65.60;98193.28;10430280;28;20147;-60
2024/03/29 18:02:18;;;;;;;2.35;1.40;;;;;;;11.70;65.95;98165.34;10415439;28;20037;-60
2024/03/29 18:07:20;;;;;;;10.80;3.15;;;;;;;11.38;67.11;98149.94;10430837;28;20041;-60
2024/03/29 18:12:21;;;;;;;12.00;3.90;;;;;;;11.14;67.42;98183.56;10433271;28;20052;-60
2024/03/29 18:17:22;;;;;;;6.30;2.85;;;;;;;11.22;67.08;98184.53;10433896;28;20041;-60
2024/03/29 18:22:23;;;;;;;4.00;2.30;;;;;;;11.23;66.97;98175.69;10431008;28;20037;-59
2024/03/29 18:27:24;;;;;;;5.80;2.53;;;;;;;11.09;67.50;98191.00;10451160;28;20062;-59
2024/03/29 18:32:25;;;;;;;5.80;2.75;;;;;;;11.12;67.33;98188.94;10428428;28;20568;-59
2024/03/29 18:37:26;;;;;;;4.85;2.80;;;;;;;11.13;67.04;98176.69;10433333;28;20094;-58
2024/03/29 18:42:27;;;;;;;8.13;3.00;;;;;;;10.98;67.33;98147.47;10427716;28;20412;-59
2024/03/29 18:47:28;;;;;;;4.85;2.60;;;;;;;10.67;67.56;98151.13;10422225;28;20066;-59
2024/03/29 18:52:29;;;;;;;4.50;2.55;;;;;;;10.67;67.72;98168.59;10426611;28;20060;-59
2024/03/29 18:57:30;;;;;;;5.90;2.67;;;;;;;10.61;67.46;98159.53;10426598;28;20041;-60
2024/03/29 19:02:32;;;;;;;4.07;2.30;;;;;;;10.49;67.35;98181.50;10428765;28;20322;-59
2024/03/29 19:07:33;;;;;;;6.30;3.50;;;;;;;10.40;67.53;98192.75;10416051;28;20056;-59
2024/03/29 19:12:34;;;;;;;4.80;2.55;;;;;;;10.38;67.33;98202.50;10432590;28;20094;-59
2024/03/29 19:17:35;;;;;;;5.50;2.88;;;;;;;10.33;67.40;98196.84;10399555;28;20496;-58
2024/03/29 19:22:36;;;;;;;14.60;3.78;;;;;;;10.22;67.56;98192.53;10431062;28;20056;-59
2024/03/29 19:27:37;;;;;;;5.43;3.25;;;;;;;10.20;67.85;98188.41;10426311;28;20554;-59
2024/03/29 19:32:38;;;;;;;6.07;3.38;;;;;;;10.23;67.80;98180.31;10415580;28;20068;-59
2024/03/29 19:37:42;;;;;;;6.47;3.65;;;;;;;10.34;67.51;98161.91;10427046;28;20136;-58
2024/03/29 19:42:45;;;;;;;9.30;3.40;;;;;;;10.40;67.31;98158.78;10403355;28;20424;-58
2024/03/29 19:47:53;;;;;;;13.95;4.53;;;;;;;10.46;67.43;98166.09;10412589;28;20132;-58
2024/03/29 19:52:57;;;;;;;;;;;;;;;10.41;68.62;98160.44;10409512;28;20056;-58
2024/03/29 19:58:00;;;;;;;100.35;5.68;;;;;;;10.44;67.43;98162.75;10423895;28;19924;-59
2024/03/29 20:03:01;;;;;;;58.03;4.47;;;;;;;10.30;68.00;98170.97;10423932;28;20041;-59
2024/03/29 20:08:04;;;;;;;11.60;4.20;;;;;;;10.39;67.76;98164.97;10407494;28;20049;-59
2024/03/29 20:13:06;;;;;;;6.18;3.50;;;;;;;10.36;67.49;98165.22;10409236;28;20057;-59
2024/03/29 20:18:09;;;;;;;5.88;3.38;;;;;;;10.29;67.89;98162.34;10425313;28;20071;-60
2024/03/29 20:23:11;;;;;;;22.83;3.80;;;;;;;10.23;68.04;98167.25;10409659;28;20057;-59
2024/03/29 20:28:17;;;;;;;20.70;4.95;;;;;;;10.07;68.29;98169.53;10461731;28;20053;-59
2024/03/29 20:33:19;;;;;;;13.48;4.53;;;;;;;9.91;68.57;98149.09;10408169;28;20044;-60
2024/03/29 20:38:21;;;;;;;8.75;5.28;;;;;;;10.02;68.44;98156.84;10427881;28;20140;-59
2024/03/29 20:43:23;;;;;;;8.27;4.50;;;;;;;10.20;68.30;98157.91;10429162;28;20052;-59
2024/03/29 20:48:25;;;;;;;23.60;6.85;;;;;;;10.34;67.88;98157.53;10428880;28;20045;-59
2024/03/29 20:53:27;;;;;;;13.30;4.70;;;;;;;10.34;67.99;98152.28;10424435;28;20070;-60
2024/03/29 20:58:30;;;;;;;10.18;4.90;;;;;;;10.26;67.86;98153.91;10428027;28;20102;-60
2024/03/29 21:08:53;;;;;;;9.35;4.65;;;;;;;10.33;67.66;98157.66;10426176;28;20520;-59
2024/03/29 21:13:55;;;;;;;11.38;4.25;;;;;;;10.23;67.54;98177.72;10427734;28;20056;-60
2024/03/29 21:18:59;;;;;;;7.97;4.13;;;;;;;10.09;67.81;98160.63;10425686;28;20041;-60
2024/03/29 21:24:02;;;;;;;7.07;4.13;;;;;;;10.06;68.01;98153.03;10426121;28;20127;-60
2024/03/29 21:29:04;;;;;;;8.02;4.38;;;;;;;10.08;67.89;98145.06;10428570;28;20064;-60
2024/03/29 21:34:06;;;;;;;9.55;5.22;;;;;;;10.17;67.77;98167.78;10427855;28;20049;-60
2024/03/29 21:39:07;;;;;;;7.72;4.68;;;;;;;10.21;67.59;98138.66;10409354;28;20044;-60
2024/03/29 21:44:07;;;;;;;8.55;4.15;;;;;;;10.21;67.46;98146.50;10412157;28;20053;-60
2024/03/29 21:49:08;;;;;;;6.65;4.15;;;;;;;10.20;67.18;98130.94;10393336;28;20044;-60
2024/03/29 21:54:09;;;;;;;8.63;4.68;;;;;;;9.91;67.25;98122.19;10424207;28;20037;-59
2024/03/29 21:59:10;;;;;;;7.75;4.10;;;;;;;9.88;67.68;98133.72;10422398;28;20501;-60
2024/03/29 22:04:11;;;;;;;6.72;3.95;;;;;;;9.91;67.79;98135.25;10403925;28;20041;-60
2024/03/29 22:09:12;;;;;;;8.07;4.00;;;;;;;9.91;67.73;98117.75;10428068;28;20057;-60
2024/03/29 22:14:13;;;;;;;8.23;5.00;;;;;;;9.78;67.74;98111.13;10422818;28;20094;-60
2024/03/29 22:19:14;;;;;;;8.10;4.15;;;;;;;9.78;67.86;98117.19;10433809;28;20505;-59
2024/03/29 22:24:17;;;;;;;8.45;4.15;;;;;;;9.70;67.93;98108.34;10430697;28;20045;-60
2024/03/29 22:29:18;;;;;;;8.73;4.68;;;;;;;9.69;68.18;98127.59;10434063;28;20049;-60
2024/03/29 22:34:20;;;;;;;9.55;4.82;;;;;;;9.79;68.21;98128.44;10432179;28;20041;-59
2024/03/29 22:39:21;;;;;;;7.97;4.43;;;;;;;9.86;68.25;98124.34;10434327;28;20052;-60
2024/03/29 22:44:22;;;;;;;9.45;5.03;;;;;;;9.88;67.97;98128.50;10436152;28;20049;-59
2024/03/29 22:49:24;;;;;;;6.90;4.43;;;;;;;9.83;68.22;98133.25;10409670;28;20047;-60
2024/03/29 22:54:25;;;;;;;7.75;3.85;;;;;;;9.91;67.89;98112.53;10432473;28;20053;-60
2024/03/29 22:59:26;;;;;;;7.15;3.70;;;;;;;9.88;67.80;98105.00;10431977;28;20408;-60
2024/03/29 23:04:27;;;;;;;8.10;4.88;;;;;;;9.73;67.90;98121.94;10431138;28;20051;-60
2024/03/29 23:09:28;;;;;;;7.72;4.43;;;;;;;9.73;67.97;98123.75;10416034;28;20095;-60
2024/03/29 23:14:29;;;;;;;7.70;3.67;;;;;;;9.75;67.83;98116.63;10414022;28;20441;-60
2024/03/29 23:19:30;;;;;;;7.07;4.30;;;;;;;9.51;68.01;98095.97;10431011;28;20061;-59
2024/03/29 23:24:30;;;;;;;6.32;4.03;;;;;;;9.52;68.25;98121.13;10429082;28;20421;-60
2024/03/29 23:29:31;;;;;;;13.48;3.70;;;;;;;9.51;68.04;98104.66;10433097;28;20049;-60
2024/03/29 23:34:32;;;;;;;15.15;5.65;;;;;;;9.43;68.26;98122.72;10429786;28;20052;-60
2024/03/29 23:39:33;;;;;;;10.20;4.75;;;;;;;9.29;68.02;98103.97;10432331;28;20378;-59